createdAt,value
2017-01-22T00:00:37.208Z,1030.09
2017-01-22T00:01:38.136Z,1030.04
2017-01-22T00:02:38.901Z,1030.06
2017-01-22T00:03:39.673Z,1030.06
2017-01-22T00:04:40.406Z,1030.05
2017-01-22T00:05:41.123Z,1030.06
2017-01-22T00:06:41.871Z,1030.09
2017-01-22T00:07:42.674Z,1030.1
2017-01-22T00:08:43.358Z,1030.1
2017-01-22T00:09:44.111Z,1030.14
2017-01-22T00:10:44.820Z,1030.09
2017-01-22T00:11:45.545Z,1030.12
2017-01-22T00:12:46.240Z,1030.11
2017-01-22T00:13:46.947Z,1030.14
2017-01-22T00:14:47.631Z,1030.11
2017-01-22T00:15:48.307Z,1030.11
2017-01-22T00:16:48.992Z,1030.1
2017-01-22T00:17:49.665Z,1030.14
2017-01-22T00:18:50.417Z,1030.13
2017-01-22T00:19:51.058Z,1030.16
2017-01-22T00:20:51.728Z,1030.11
2017-01-22T00:21:52.413Z,1030.11
2017-01-22T00:22:53.153Z,1030.1
2017-01-22T00:23:53.838Z,1030.08
2017-01-22T00:24:54.650Z,1030.1
2017-01-22T00:25:55.320Z,1030.1
2017-01-22T00:26:55.988Z,1030.09
2017-01-22T00:27:56.681Z,1030.07
2017-01-22T00:28:57.441Z,1030.08
2017-01-22T00:29:58.151Z,1030.12
2017-01-22T00:30:58.821Z,1030.07
2017-01-22T00:31:59.524Z,1030.04
2017-01-22T00:33:00.201Z,1030.06
2017-01-22T00:34:00.873Z,1030.05
2017-01-22T00:35:01.565Z,1030.06
2017-01-22T00:36:02.244Z,1030.04
2017-01-22T00:37:02.932Z,1030.07
2017-01-22T00:38:03.616Z,1030.08
2017-01-22T00:39:04.297Z,1030.07
2017-01-22T00:40:05.070Z,1030.05
2017-01-22T00:41:05.685Z,1030.1
2017-01-22T00:42:06.376Z,1030.08
2017-01-22T00:43:07.076Z,1030.07
2017-01-22T00:44:07.761Z,1030.11
2017-01-22T00:45:08.443Z,1030.09
2017-01-22T00:46:09.151Z,1030.09
2017-01-22T00:47:09.851Z,1030.09
2017-01-22T00:48:10.542Z,1030.07
2017-01-22T00:49:11.243Z,1030.09
2017-01-22T00:50:11.924Z,1030.08
2017-01-22T00:51:12.641Z,1030.07
2017-01-22T00:52:13.314Z,1030.05
2017-01-22T00:53:13.986Z,1030.1
2017-01-22T00:54:14.668Z,1030.07
2017-01-22T00:55:15.339Z,1030.09
2017-01-22T00:56:16.022Z,1030.09
2017-01-22T00:57:16.688Z,1030.06
2017-01-22T00:58:17.443Z,1030.09
2017-01-22T00:59:18.085Z,1030.06
2017-01-22T01:00:18.760Z,1030.1
2017-01-22T01:01:19.434Z,1030.07
2017-01-22T01:02:20.128Z,1030.01
2017-01-22T01:03:20.797Z,1030.05
2017-01-22T01:04:21.492Z,1030.05
2017-01-22T01:05:22.299Z,1030.12
2017-01-22T01:06:22.999Z,1030.11
2017-01-22T01:07:23.678Z,1030.09
2017-01-22T01:08:24.363Z,1030.08
2017-01-22T01:09:25.037Z,1030.08
2017-01-22T01:10:25.700Z,1030.12
2017-01-22T01:11:26.414Z,1030.11
2017-01-22T01:12:27.102Z,1030.14
2017-01-22T01:13:27.786Z,1030.2
2017-01-22T01:14:28.490Z,1030.15
2017-01-22T01:15:29.192Z,1030.14
2017-01-22T01:16:29.882Z,1030.19
2017-01-22T01:17:30.546Z,1030.16
2017-01-22T01:18:31.218Z,1030.11
2017-01-22T01:19:31.886Z,1030.18
2017-01-22T01:20:32.571Z,1030.16
2017-01-22T01:21:33.237Z,1030.17
2017-01-22T01:22:33.922Z,1030.14
2017-01-22T01:23:34.587Z,1030.12
2017-01-22T01:24:35.254Z,1030.11
2017-01-22T01:25:35.938Z,1030.15
2017-01-22T01:26:36.613Z,1030.12
2017-01-22T01:27:37.288Z,1030.11
2017-01-22T01:28:37.973Z,1030.12
2017-01-22T01:29:38.626Z,1030.11
2017-01-22T01:30:39.303Z,1030.09
2017-01-22T01:31:39.973Z,1030.1
2017-01-22T01:32:40.654Z,1030.1
2017-01-22T01:33:41.338Z,1030.11
2017-01-22T01:34:42.014Z,1030.1
2017-01-22T01:35:42.728Z,1030.08
2017-01-22T01:36:43.402Z,1030.07
2017-01-22T01:37:44.078Z,1030.06
2017-01-22T01:38:46.024Z,1030.09
2017-01-22T01:39:46.700Z,1030.09
2017-01-22T01:40:47.374Z,1030.1
2017-01-22T01:41:48.053Z,1030.07
2017-01-22T01:42:48.752Z,1030.11
2017-01-22T01:43:49.438Z,1030.09
2017-01-22T01:44:50.126Z,1030.04
2017-01-22T01:45:50.811Z,1030.03
2017-01-22T01:46:51.488Z,1030
2017-01-22T01:47:52.158Z,1030
2017-01-22T01:48:52.837Z,1029.97
2017-01-22T01:49:53.523Z,1029.96
2017-01-22T01:50:54.231Z,1029.96
2017-01-22T01:51:54.903Z,1029.93
2017-01-22T01:52:55.587Z,1029.95
2017-01-22T01:53:56.259Z,1029.9
2017-01-22T01:54:56.926Z,1029.91
2017-01-22T01:55:57.607Z,1029.88
2017-01-22T01:56:58.273Z,1029.9
2017-01-22T01:57:58.944Z,1029.9
2017-01-22T01:58:59.616Z,1029.91
2017-01-22T02:00:00.317Z,1029.88
2017-01-22T02:01:01.018Z,1029.9
2017-01-22T02:02:01.694Z,1029.87
2017-01-22T02:03:02.358Z,1029.86
2017-01-22T02:04:03.093Z,1029.9
2017-01-22T02:05:03.765Z,1029.89
2017-01-22T02:06:04.432Z,1029.87
2017-01-22T02:07:05.095Z,1029.9
2017-01-22T02:08:05.770Z,1029.89
2017-01-22T02:09:06.455Z,1029.86
2017-01-22T02:10:07.127Z,1029.91
2017-01-22T02:11:07.801Z,1029.89
2017-01-22T02:12:08.466Z,1029.9
2017-01-22T02:13:09.136Z,1029.91
2017-01-22T02:14:09.811Z,1029.95
2017-01-22T02:15:10.485Z,1029.91
2017-01-22T02:16:11.158Z,1029.97
2017-01-22T02:17:11.843Z,1030
2017-01-22T02:18:15.315Z,1029.94
2017-01-22T02:19:15.994Z,1029.97
2017-01-22T02:20:16.664Z,1029.95
2017-01-22T02:21:17.333Z,1029.9
2017-01-22T02:22:18.017Z,1029.92
2017-01-22T02:23:18.689Z,1029.87
2017-01-22T02:24:19.359Z,1029.91
2017-01-22T02:25:20.030Z,1029.93
2017-01-22T02:26:20.703Z,1029.9
2017-01-22T02:27:21.371Z,1029.89
2017-01-22T02:28:22.044Z,1029.89
2017-01-22T02:29:22.721Z,1029.92
2017-01-22T02:30:23.394Z,1029.91
2017-01-22T02:31:24.058Z,1029.91
2017-01-22T02:32:24.733Z,1029.9
2017-01-22T02:33:25.408Z,1029.85
2017-01-22T02:34:26.077Z,1029.84
2017-01-22T02:35:26.754Z,1029.83
2017-01-22T02:36:27.425Z,1029.82
2017-01-22T02:37:28.104Z,1029.78
2017-01-22T02:38:28.762Z,1029.82
2017-01-22T02:39:29.445Z,1029.81
2017-01-22T02:40:30.135Z,1029.82
2017-01-22T02:41:30.794Z,1029.82
2017-01-22T02:42:31.461Z,1029.81
2017-01-22T02:43:32.146Z,1029.83
2017-01-22T02:44:32.828Z,1029.79
2017-01-22T02:45:33.495Z,1029.74
2017-01-22T02:46:34.173Z,1029.8
2017-01-22T02:47:34.850Z,1029.71
2017-01-22T02:48:35.512Z,1029.76
2017-01-22T02:49:36.182Z,1029.68
2017-01-22T02:50:36.844Z,1029.7
2017-01-22T02:51:37.564Z,1029.65
2017-01-22T02:52:38.253Z,1029.64
2017-01-22T02:53:38.925Z,1029.68
2017-01-22T02:54:39.611Z,1029.67
2017-01-22T02:55:40.266Z,1029.61
2017-01-22T02:56:40.936Z,1029.62
2017-01-22T02:57:41.602Z,1029.59
2017-01-22T02:58:42.272Z,1029.59
2017-01-22T02:59:42.951Z,1029.57
2017-01-22T03:00:43.626Z,1029.59
2017-01-22T03:01:44.298Z,1029.57
2017-01-22T03:02:44.973Z,1029.56
2017-01-22T03:03:45.648Z,1029.55
2017-01-22T03:04:46.350Z,1029.55
2017-01-22T03:05:47.027Z,1029.54
2017-01-22T03:06:47.707Z,1029.55
2017-01-22T03:07:48.384Z,1029.52
2017-01-22T03:08:49.054Z,1029.57
2017-01-22T03:09:49.734Z,1029.51
2017-01-22T03:10:50.420Z,1029.55
2017-01-22T03:11:51.114Z,1029.49
2017-01-22T03:12:51.786Z,1029.5
2017-01-22T03:13:52.483Z,1029.47
2017-01-22T03:14:53.153Z,1029.44
2017-01-22T03:15:53.856Z,1029.48
2017-01-22T03:16:54.527Z,1029.48
2017-01-22T03:17:55.207Z,1029.46
2017-01-22T03:18:55.915Z,1029.45
2017-01-22T03:19:56.648Z,1029.43
2017-01-22T03:20:57.338Z,1029.42
2017-01-22T03:21:58.023Z,1029.49
2017-01-22T03:22:58.703Z,1029.37
2017-01-22T03:23:59.411Z,1029.39
2017-01-22T03:25:00.109Z,1029.4
2017-01-22T03:26:00.774Z,1029.38
2017-01-22T03:27:01.456Z,1029.38
2017-01-22T03:28:02.123Z,1029.39
2017-01-22T03:29:02.804Z,1029.33
2017-01-22T03:30:03.479Z,1029.36
2017-01-22T03:31:04.152Z,1029.37
2017-01-22T03:32:04.841Z,1029.36
2017-01-22T03:33:05.515Z,1029.32
2017-01-22T03:34:06.187Z,1029.36
2017-01-22T03:35:06.860Z,1029.35
2017-01-22T03:36:07.544Z,1029.32
2017-01-22T03:37:08.214Z,1029.39
2017-01-22T03:38:08.888Z,1029.37
2017-01-22T03:39:09.545Z,1029.41
2017-01-22T03:40:10.231Z,1029.41
2017-01-22T03:41:10.903Z,1029.44
2017-01-22T03:42:11.572Z,1029.43
2017-01-22T03:43:12.251Z,1029.42
2017-01-22T03:44:12.945Z,1029.41
2017-01-22T03:45:13.619Z,1029.39
2017-01-22T03:46:14.286Z,1029.39
2017-01-22T03:47:14.967Z,1029.35
2017-01-22T03:48:15.633Z,1029.36
2017-01-22T03:49:16.310Z,1029.42
2017-01-22T03:50:16.990Z,1029.37
2017-01-22T03:51:17.658Z,1029.34
2017-01-22T03:52:18.341Z,1029.29
2017-01-22T03:53:19.009Z,1029.33
2017-01-22T03:54:19.677Z,1029.4
2017-01-22T03:55:20.348Z,1029.34
2017-01-22T03:56:21.037Z,1029.32
2017-01-22T03:57:21.716Z,1029.34
2017-01-22T03:58:22.391Z,1029.34
2017-01-22T03:59:23.062Z,1029.38
2017-01-22T04:00:23.737Z,1029.29
2017-01-22T04:01:24.414Z,1029.34
2017-01-22T04:02:25.111Z,1029.29
2017-01-22T04:03:25.774Z,1029.28
2017-01-22T04:04:26.460Z,1029.29
2017-01-22T04:05:27.127Z,1029.3
2017-01-22T04:06:27.801Z,1029.29
2017-01-22T04:07:28.481Z,1029.29
2017-01-22T04:08:29.147Z,1029.29
2017-01-22T04:09:29.841Z,1029.25
2017-01-22T04:10:30.488Z,1029.23
2017-01-22T04:11:31.175Z,1029.24
2017-01-22T04:12:31.837Z,1029.25
2017-01-22T04:13:32.513Z,1029.25
2017-01-22T04:14:33.228Z,1029.26
2017-01-22T04:15:33.932Z,1029.26
2017-01-22T04:16:34.580Z,1029.2
2017-01-22T04:17:35.261Z,1029.19
2017-01-22T04:18:35.932Z,1029.21
2017-01-22T04:19:36.602Z,1029.19
2017-01-22T04:20:37.275Z,1029.19
2017-01-22T04:21:37.939Z,1029.2
2017-01-22T04:22:38.614Z,1029.14
2017-01-22T04:23:39.292Z,1029.16
2017-01-22T04:24:39.961Z,1029.12
2017-01-22T04:25:40.631Z,1029.15
2017-01-22T04:26:41.302Z,1029.12
2017-01-22T04:27:41.969Z,1029.14
2017-01-22T04:28:42.638Z,1029.11
2017-01-22T04:29:43.316Z,1029.13
2017-01-22T04:30:44.017Z,1029.12
2017-01-22T04:31:44.661Z,1029.1
2017-01-22T04:32:45.337Z,1029.14
2017-01-22T04:33:46.008Z,1029.08
2017-01-22T04:34:46.678Z,1029.1
2017-01-22T04:35:47.362Z,1029.08
2017-01-22T04:36:48.029Z,1029.13
2017-01-22T04:37:48.694Z,1029.17
2017-01-22T04:38:49.371Z,1029.14
2017-01-22T04:39:50.046Z,1029.15
2017-01-22T04:40:50.725Z,1029.16
2017-01-22T04:41:51.405Z,1029.18
2017-01-22T04:42:52.080Z,1029.16
2017-01-22T04:43:52.757Z,1029.18
2017-01-22T04:44:53.436Z,1029.17
2017-01-22T04:45:54.108Z,1029.17
2017-01-22T04:46:54.792Z,1029.2
2017-01-22T04:47:55.469Z,1029.18
2017-01-22T04:48:56.130Z,1029.16
2017-01-22T04:49:56.809Z,1029.17
2017-01-22T04:50:57.486Z,1029.12
2017-01-22T04:51:58.206Z,1029.15
2017-01-22T04:52:58.886Z,1029.11
2017-01-22T04:53:59.570Z,1029.1
2017-01-22T04:55:00.241Z,1029.09
2017-01-22T04:56:00.942Z,1029.06
2017-01-22T04:57:01.613Z,1029.1
2017-01-22T04:58:02.273Z,1029.08
2017-01-22T04:59:02.962Z,1029.05
2017-01-22T05:00:03.663Z,1029.02
2017-01-22T05:01:04.324Z,1029.09
2017-01-22T05:02:04.988Z,1029.04
2017-01-22T05:03:05.671Z,1029.08
2017-01-22T05:04:06.335Z,1029.08
2017-01-22T05:05:07.007Z,1029.07
2017-01-22T05:06:07.687Z,1029.04
2017-01-22T05:07:08.369Z,1029.06
2017-01-22T05:08:09.041Z,1029.06
2017-01-22T05:09:09.709Z,1029.02
2017-01-22T05:10:10.402Z,1029.02
2017-01-22T05:11:11.098Z,1029.04
2017-01-22T05:12:11.773Z,1029.01
2017-01-22T05:13:12.451Z,1029.02
2017-01-22T05:14:13.124Z,1029.01
2017-01-22T05:15:13.827Z,1029.02
2017-01-22T05:16:14.487Z,1029
2017-01-22T05:17:15.166Z,1029.02
2017-01-22T05:18:15.845Z,1028.98
2017-01-22T05:19:16.525Z,1029
2017-01-22T05:20:17.209Z,1028.98
2017-01-22T05:21:17.883Z,1028.97
2017-01-22T05:22:18.554Z,1028.97
2017-01-22T05:23:19.225Z,1029
2017-01-22T05:24:19.931Z,1029
2017-01-22T05:25:20.606Z,1029.03
2017-01-22T05:26:21.290Z,1028.99
2017-01-22T05:27:21.973Z,1028.96
2017-01-22T05:28:22.640Z,1028.97
2017-01-22T05:29:23.308Z,1028.98
2017-01-22T05:30:23.991Z,1029.01
2017-01-22T05:31:24.672Z,1028.96
2017-01-22T05:32:25.350Z,1028.97
2017-01-22T05:33:26.016Z,1028.98
2017-01-22T05:34:26.691Z,1029.02
2017-01-22T05:35:27.385Z,1029
2017-01-22T05:36:28.064Z,1029.01
2017-01-22T05:37:28.745Z,1028.96
2017-01-22T05:38:29.428Z,1028.98
2017-01-22T05:39:30.108Z,1028.98
2017-01-22T05:40:30.782Z,1028.98
2017-01-22T05:41:31.454Z,1028.99
2017-01-22T05:42:32.133Z,1028.94
2017-01-22T05:43:32.805Z,1028.96
2017-01-22T05:44:33.473Z,1028.95
2017-01-22T05:45:34.172Z,1028.94
2017-01-22T05:46:34.849Z,1028.98
2017-01-22T05:47:35.536Z,1028.95
2017-01-22T05:48:36.215Z,1028.99
2017-01-22T05:49:36.901Z,1028.95
2017-01-22T05:50:37.592Z,1028.96
2017-01-22T05:51:38.311Z,1028.94
2017-01-22T05:52:38.953Z,1028.96
2017-01-22T05:53:39.644Z,1028.97
2017-01-22T05:54:40.318Z,1028.96
2017-01-22T05:55:41.007Z,1029.01
2017-01-22T05:56:41.680Z,1029.06
2017-01-22T05:57:42.364Z,1028.99
2017-01-22T05:58:43.041Z,1029
2017-01-22T05:59:43.721Z,1028.99
2017-01-22T06:00:44.384Z,1028.97
2017-01-22T06:01:45.051Z,1028.97
2017-01-22T06:02:45.718Z,1029.02
2017-01-22T06:03:46.398Z,1029
2017-01-22T06:04:47.065Z,1029
2017-01-22T06:05:47.736Z,1029.01
2017-01-22T06:06:48.412Z,1029.02
2017-01-22T06:07:49.086Z,1029.02
2017-01-22T06:08:49.770Z,1029
2017-01-22T06:09:50.507Z,1029
2017-01-22T06:10:51.179Z,1028.99
2017-01-22T06:11:51.867Z,1028.94
2017-01-22T06:12:52.543Z,1028.94
2017-01-22T06:13:53.226Z,1029.01
2017-01-22T06:14:53.907Z,1028.99
2017-01-22T06:15:54.583Z,1028.99
2017-01-22T06:16:55.265Z,1028.96
2017-01-22T06:17:55.956Z,1028.99
2017-01-22T06:18:56.628Z,1028.94
2017-01-22T06:19:57.307Z,1028.94
2017-01-22T06:20:57.984Z,1028.95
2017-01-22T06:21:58.692Z,1028.91
2017-01-22T06:22:59.374Z,1028.92
2017-01-22T06:24:00.061Z,1028.9
2017-01-22T06:25:00.716Z,1028.93
2017-01-22T06:26:01.383Z,1028.9
2017-01-22T06:27:02.063Z,1028.94
2017-01-22T06:28:02.745Z,1028.91
2017-01-22T06:29:03.408Z,1028.9
2017-01-22T06:30:04.089Z,1028.95
2017-01-22T06:31:04.774Z,1028.93
2017-01-22T06:32:05.452Z,1028.91
2017-01-22T06:33:06.114Z,1028.91
2017-01-22T06:34:06.807Z,1028.94
2017-01-22T06:35:07.494Z,1028.94
2017-01-22T06:36:08.181Z,1028.97
2017-01-22T06:37:08.847Z,1028.98
2017-01-22T06:38:09.522Z,1028.93
2017-01-22T06:39:10.198Z,1028.93
2017-01-22T06:40:10.872Z,1028.97
2017-01-22T06:41:11.528Z,1028.98
2017-01-22T06:42:12.206Z,1028.97
2017-01-22T06:43:12.883Z,1028.95
2017-01-22T06:44:13.557Z,1028.96
2017-01-22T06:45:14.234Z,1028.95
2017-01-22T06:46:14.913Z,1028.93
2017-01-22T06:47:15.597Z,1028.91
2017-01-22T06:48:16.265Z,1028.92
2017-01-22T06:49:16.941Z,1028.9
2017-01-22T06:50:17.641Z,1028.92
2017-01-22T06:51:18.331Z,1028.92
2017-01-22T06:52:19.021Z,1028.92
2017-01-22T06:53:19.676Z,1028.91
2017-01-22T06:54:20.356Z,1028.86
2017-01-22T06:55:21.039Z,1028.9
2017-01-22T06:56:21.704Z,1028.87
2017-01-22T06:57:22.369Z,1028.91
2017-01-22T06:58:23.048Z,1028.9
2017-01-22T06:59:23.721Z,1028.89
2017-01-22T07:00:24.418Z,1028.9
2017-01-22T07:01:25.080Z,1028.9
2017-01-22T07:02:25.758Z,1028.87
2017-01-22T07:03:26.454Z,1028.9
2017-01-22T07:04:27.129Z,1028.92
2017-01-22T07:05:27.816Z,1028.94
2017-01-22T07:06:28.487Z,1028.91
2017-01-22T07:07:29.165Z,1028.91
2017-01-22T07:08:29.827Z,1028.89
2017-01-22T07:09:30.513Z,1028.96
2017-01-22T07:10:31.184Z,1028.93
2017-01-22T07:11:31.861Z,1028.94
2017-01-22T07:12:32.525Z,1028.94
2017-01-22T07:13:33.227Z,1028.92
2017-01-22T07:14:33.885Z,1028.92
2017-01-22T07:15:34.564Z,1028.94
2017-01-22T07:16:35.258Z,1028.95
2017-01-22T07:17:35.938Z,1028.95
2017-01-22T07:18:36.612Z,1028.92
2017-01-22T07:19:37.276Z,1028.96
2017-01-22T07:20:37.947Z,1028.96
2017-01-22T07:21:38.622Z,1028.96
2017-01-22T07:22:39.291Z,1028.98
2017-01-22T07:23:39.964Z,1028.95
2017-01-22T07:24:40.632Z,1028.95
2017-01-22T07:25:41.327Z,1029
2017-01-22T07:26:42.001Z,1029
2017-01-22T07:27:42.675Z,1028.93
2017-01-22T07:28:43.358Z,1028.92
2017-01-22T07:29:44.031Z,1028.93
2017-01-22T07:30:44.715Z,1028.89
2017-01-22T07:31:45.427Z,1028.93
2017-01-22T07:32:46.108Z,1028.91
2017-01-22T07:33:46.772Z,1028.97
2017-01-22T07:34:47.465Z,1028.96
2017-01-22T07:35:48.135Z,1028.98
2017-01-22T07:36:48.814Z,1028.93
2017-01-22T07:37:49.494Z,1028.92
2017-01-22T07:38:50.168Z,1028.9
2017-01-22T07:39:50.845Z,1028.95
2017-01-22T07:40:51.515Z,1028.95
2017-01-22T07:41:52.279Z,1028.93
2017-01-22T07:42:52.952Z,1028.98
2017-01-22T07:43:53.634Z,1029.01
2017-01-22T07:44:54.319Z,1029
2017-01-22T07:45:55.025Z,1029.02
2017-01-22T07:46:55.703Z,1029.02
2017-01-22T07:47:56.379Z,1028.99
2017-01-22T07:48:57.047Z,1028.98
2017-01-22T07:49:57.730Z,1029.01
2017-01-22T07:50:58.410Z,1028.99
2017-01-22T07:51:59.077Z,1028.97
2017-01-22T07:52:59.750Z,1028.98
2017-01-22T07:54:00.418Z,1028.96
2017-01-22T07:55:01.088Z,1028.96
2017-01-22T07:56:01.766Z,1028.91
2017-01-22T07:57:02.457Z,1028.96
2017-01-22T07:58:03.128Z,1028.9
2017-01-22T07:59:03.812Z,1028.93
2017-01-22T08:00:04.495Z,1028.92
2017-01-22T08:01:05.163Z,1028.91
2017-01-22T08:02:05.863Z,1028.89
2017-01-22T08:03:06.557Z,1028.84
2017-01-22T08:04:07.251Z,1028.86
2017-01-22T08:05:07.916Z,1028.91
2017-01-22T08:06:08.587Z,1028.89
2017-01-22T08:07:09.252Z,1028.88
2017-01-22T08:08:09.931Z,1028.84
2017-01-22T08:09:10.603Z,1028.9
2017-01-22T08:10:11.276Z,1028.87
2017-01-22T08:11:11.955Z,1028.87
2017-01-22T08:12:12.657Z,1028.85
2017-01-22T08:13:13.344Z,1028.91
2017-01-22T08:14:14.011Z,1028.9
2017-01-22T08:15:14.690Z,1028.88
2017-01-22T08:16:15.354Z,1028.9
2017-01-22T08:17:16.041Z,1028.91
2017-01-22T08:18:16.730Z,1028.89
2017-01-22T08:19:17.389Z,1028.91
2017-01-22T08:20:18.066Z,1028.9
2017-01-22T08:21:18.738Z,1028.9
2017-01-22T08:22:19.413Z,1028.9
2017-01-22T08:23:20.079Z,1028.94
2017-01-22T08:24:20.752Z,1028.9
2017-01-22T08:25:21.428Z,1028.9
2017-01-22T08:26:22.102Z,1028.93
2017-01-22T08:27:22.765Z,1028.94
2017-01-22T08:28:23.473Z,1028.91
2017-01-22T08:29:24.156Z,1028.93
2017-01-22T08:30:24.831Z,1028.89
2017-01-22T08:31:25.517Z,1028.91
2017-01-22T08:32:26.215Z,1028.93
2017-01-22T08:33:26.863Z,1028.97
2017-01-22T08:34:27.560Z,1028.97
2017-01-22T08:35:28.239Z,1028.92
2017-01-22T08:36:28.914Z,1028.97
2017-01-22T08:37:29.610Z,1028.96
2017-01-22T08:38:30.275Z,1028.96
2017-01-22T08:39:30.965Z,1028.93
2017-01-22T08:40:31.656Z,1028.95
2017-01-22T08:41:32.340Z,1028.97
2017-01-22T08:42:33.068Z,1028.94
2017-01-22T08:43:33.746Z,1028.96
2017-01-22T08:44:34.419Z,1028.98
2017-01-22T08:45:35.128Z,1028.97
2017-01-22T08:46:35.887Z,1028.97
2017-01-22T08:47:36.571Z,1028.98
2017-01-22T08:48:37.255Z,1028.96
2017-01-22T08:49:37.935Z,1028.97
2017-01-22T08:50:38.623Z,1028.96
2017-01-22T08:51:39.297Z,1028.98
2017-01-22T08:52:39.987Z,1028.95
2017-01-22T08:53:40.674Z,1028.95
2017-01-22T08:54:41.392Z,1028.95
2017-01-22T08:55:42.073Z,1028.91
2017-01-22T08:56:42.753Z,1028.91
2017-01-22T08:57:43.406Z,1028.95
2017-01-22T08:58:44.086Z,1028.89
2017-01-22T08:59:44.778Z,1028.92
2017-01-22T09:00:45.452Z,1028.9
2017-01-22T09:01:46.239Z,1028.89
2017-01-22T09:02:46.951Z,1028.89
2017-01-22T09:03:47.633Z,1028.89
2017-01-22T09:04:48.329Z,1028.91
2017-01-22T09:05:49.049Z,1028.87
2017-01-22T09:06:49.743Z,1028.88
2017-01-22T09:07:50.445Z,1028.88
2017-01-22T09:08:51.125Z,1028.96
2017-01-22T09:09:51.845Z,1028.95
2017-01-22T09:10:52.535Z,1028.96
2017-01-22T09:11:53.215Z,1028.96
2017-01-22T09:12:53.906Z,1029.06
2017-01-22T09:13:54.617Z,1028.99
2017-01-22T09:14:55.293Z,1029.02
2017-01-22T09:15:56.043Z,1029.02
2017-01-22T09:16:56.758Z,1029
2017-01-22T09:17:57.495Z,1029.01
2017-01-22T09:18:58.214Z,1029.01
2017-01-22T09:19:58.899Z,1029.01
2017-01-22T09:20:59.605Z,1029.01
2017-01-22T09:22:00.309Z,1028.96
2017-01-22T09:23:01.024Z,1028.93
2017-01-22T09:24:01.734Z,1028.99
2017-01-22T09:25:02.460Z,1028.91
2017-01-22T09:26:03.163Z,1028.93
2017-01-22T09:27:03.860Z,1028.96
2017-01-22T09:28:04.556Z,1028.97
2017-01-22T09:29:05.282Z,1028.99
2017-01-22T09:30:06.111Z,1029
2017-01-22T09:31:06.923Z,1028.98
2017-01-22T09:32:07.655Z,1028.97
2017-01-22T09:33:08.400Z,1028.95
2017-01-22T09:34:09.070Z,1028.94
2017-01-22T09:35:09.776Z,1028.94
2017-01-22T09:36:10.484Z,1028.96
2017-01-22T09:37:11.172Z,1028.96
2017-01-22T09:38:11.974Z,1028.98
2017-01-22T09:39:12.691Z,1028.99
2017-01-22T09:40:13.410Z,1028.97
2017-01-22T09:41:14.104Z,1028.9
2017-01-22T09:42:14.808Z,1028.95
2017-01-22T09:43:15.627Z,1028.91
2017-01-22T09:44:16.318Z,1028.93
2017-01-22T09:45:17.014Z,1028.92
2017-01-22T09:46:17.833Z,1028.95
2017-01-22T09:47:18.514Z,1028.93
2017-01-22T09:48:19.222Z,1028.93
2017-01-22T09:49:19.977Z,1028.96
2017-01-22T09:50:20.677Z,1028.91
2017-01-22T09:51:21.356Z,1028.88
2017-01-22T09:52:22.205Z,1028.92
2017-01-22T09:53:23.644Z,1028.89
2017-01-22T09:54:24.383Z,1028.87
2017-01-22T09:55:25.154Z,1028.89
2017-01-22T09:56:25.869Z,1028.87
2017-01-22T09:57:26.748Z,1028.87
2017-01-22T09:58:27.626Z,1028.9
2017-01-22T09:59:28.616Z,1028.87
2017-01-22T10:00:29.400Z,1028.92
2017-01-22T10:01:30.128Z,1028.89
2017-01-22T10:02:30.871Z,1028.91
2017-01-22T10:03:31.619Z,1028.92
2017-01-22T10:04:32.321Z,1028.89
2017-01-22T10:05:33.022Z,1028.86
2017-01-22T10:06:33.758Z,1028.87
2017-01-22T10:07:34.481Z,1028.88
2017-01-22T10:08:35.220Z,1028.88
2017-01-22T10:09:35.973Z,1028.88
2017-01-22T10:10:36.689Z,1028.89
2017-01-22T10:11:37.388Z,1028.86
2017-01-22T10:12:38.197Z,1028.9
2017-01-22T10:13:38.893Z,1028.83
2017-01-22T10:14:39.584Z,1028.87
2017-01-22T10:15:40.333Z,1028.87
2017-01-22T10:16:41.009Z,1028.8
2017-01-22T10:17:41.735Z,1028.81
2017-01-22T10:18:42.488Z,1028.84
2017-01-22T10:19:43.321Z,1028.82
2017-01-22T10:20:44.057Z,1028.77
2017-01-22T10:21:44.808Z,1028.76
2017-01-22T10:22:45.549Z,1028.75
2017-01-22T10:23:46.308Z,1028.73
2017-01-22T10:24:47.011Z,1028.71
2017-01-22T10:25:47.721Z,1028.72
2017-01-22T10:26:48.446Z,1028.75
2017-01-22T10:27:49.205Z,1028.79
2017-01-22T10:28:49.879Z,1028.75
2017-01-22T10:29:50.646Z,1028.71
2017-01-22T10:30:51.346Z,1028.73
2017-01-22T10:31:52.029Z,1028.7
2017-01-22T10:32:52.740Z,1028.68
2017-01-22T10:33:53.499Z,1028.69
2017-01-22T10:34:54.242Z,1028.65
2017-01-22T10:35:54.960Z,1028.64
2017-01-22T10:36:55.637Z,1028.62
2017-01-22T10:37:56.358Z,1028.62
2017-01-22T10:38:57.095Z,1028.53
2017-01-22T10:39:57.792Z,1028.52
2017-01-22T10:40:58.496Z,1028.55
2017-01-22T10:41:59.226Z,1028.56
2017-01-22T10:42:59.958Z,1028.49
2017-01-22T10:44:00.646Z,1028.48
2017-01-22T10:45:01.346Z,1028.44
2017-01-22T10:46:02.140Z,1028.43
2017-01-22T10:47:02.873Z,1028.48
2017-01-22T10:48:03.556Z,1028.46
2017-01-22T10:49:04.258Z,1028.43
2017-01-22T10:50:05.022Z,1028.42
2017-01-22T10:51:05.754Z,1028.46
2017-01-22T10:52:06.443Z,1028.47
2017-01-22T10:53:07.173Z,1028.44
2017-01-22T10:54:07.906Z,1028.43
2017-01-22T10:55:08.600Z,1028.43
2017-01-22T10:56:09.287Z,1028.45
2017-01-22T10:57:09.976Z,1028.44
2017-01-22T10:58:10.686Z,1028.44
2017-01-22T10:59:11.387Z,1028.41
2017-01-22T11:00:12.080Z,1028.34
2017-01-22T11:01:12.761Z,1028.34
2017-01-22T11:02:13.470Z,1028.32
2017-01-22T11:03:14.137Z,1028.28
2017-01-22T11:04:14.816Z,1028.29
2017-01-22T11:05:15.516Z,1028.23
2017-01-22T11:06:16.242Z,1028.25
2017-01-22T11:07:16.925Z,1028.19
2017-01-22T11:08:17.621Z,1028.2
2017-01-22T11:09:18.308Z,1028.17
2017-01-22T11:10:18.993Z,1028.15
2017-01-22T11:11:19.673Z,1028.15
2017-01-22T11:12:20.356Z,1028.13
2017-01-22T11:13:21.070Z,1028.15
2017-01-22T11:14:21.758Z,1028.15
2017-01-22T11:15:22.436Z,1028.13
2017-01-22T11:16:23.119Z,1028.15
2017-01-22T11:17:23.814Z,1028.16
2017-01-22T11:18:24.533Z,1028.14
2017-01-22T11:19:25.222Z,1028.14
2017-01-22T11:20:25.912Z,1028.11
2017-01-22T11:21:26.630Z,1028.1
2017-01-22T11:22:27.296Z,1028.1
2017-01-22T11:23:27.996Z,1028.09
2017-01-22T11:24:28.663Z,1028.04
2017-01-22T11:25:29.362Z,1028.07
2017-01-22T11:26:30.047Z,1028.02
2017-01-22T11:27:30.716Z,1027.99
2017-01-22T11:28:31.402Z,1028.01
2017-01-22T11:29:32.082Z,1027.99
2017-01-22T11:30:32.780Z,1027.96
2017-01-22T11:31:33.472Z,1027.92
2017-01-22T11:32:34.150Z,1027.87
2017-01-22T11:33:34.844Z,1027.87
2017-01-22T11:34:35.522Z,1027.81
2017-01-22T11:35:36.213Z,1027.81
2017-01-22T11:36:36.882Z,1027.82
2017-01-22T11:37:37.573Z,1027.8
2017-01-22T11:38:38.254Z,1027.78
2017-01-22T11:39:38.935Z,1027.8
2017-01-22T11:40:39.631Z,1027.81
2017-01-22T11:41:40.328Z,1027.79
2017-01-22T11:42:40.995Z,1027.76
2017-01-22T11:43:41.658Z,1027.74
2017-01-22T11:44:42.335Z,1027.69
2017-01-22T11:45:43.012Z,1027.73
2017-01-22T11:46:43.684Z,1027.67
2017-01-22T11:47:44.382Z,1027.65
2017-01-22T11:48:45.049Z,1027.66
2017-01-22T11:49:45.734Z,1027.67
2017-01-22T11:50:46.417Z,1027.72
2017-01-22T11:51:47.099Z,1027.7
2017-01-22T11:52:47.799Z,1027.67
2017-01-22T11:53:48.461Z,1027.67
2017-01-22T11:54:49.137Z,1027.69
2017-01-22T11:55:49.831Z,1027.67
2017-01-22T11:56:50.503Z,1027.69
2017-01-22T11:57:51.170Z,1027.73
2017-01-22T11:58:51.856Z,1027.67
2017-01-22T11:59:52.562Z,1027.67
2017-01-22T12:00:53.243Z,1027.66
2017-01-22T12:01:53.951Z,1027.6
2017-01-22T12:02:54.645Z,1027.61
2017-01-22T12:03:55.351Z,1027.64
2017-01-22T12:04:56.050Z,1027.6
2017-01-22T12:05:56.727Z,1027.58
2017-01-22T12:06:57.399Z,1027.58
2017-01-22T12:07:58.068Z,1027.55
2017-01-22T12:08:58.740Z,1027.56
2017-01-22T12:09:59.407Z,1027.55
2017-01-22T12:11:00.080Z,1027.54
2017-01-22T12:12:00.757Z,1027.51
2017-01-22T12:13:01.433Z,1027.55
2017-01-22T12:14:02.116Z,1027.52
2017-01-22T12:15:02.793Z,1027.54
2017-01-22T12:16:03.480Z,1027.52
2017-01-22T12:17:04.167Z,1027.5
2017-01-22T12:18:04.846Z,1027.51